Chandler, IN (47610)

1:30 AM CDT on September 19, 2014 (GMT -0500)
KINCHAND3 | Change Station
CLOSE
Current Station
Personal Weather Station
Location: Chandler, IN
Elevation: 427 ft
Nearby Weather Stations

Elev 427 ft 38.04 °N, 87.37 °W | Updated 50 seconds ago

Clear
Clear
53.9 °F
Feels Like 53.9 °F
N
0.0
Wind Variable Wind from East
Gusts 0.0 mph

Today
High -- | Low -- °F
--% Chance of Precip.
Yesterday
High -- | Low -- °F
Precip. -- in
6:34 AM 6:51 PM
Waning Crescent, 21% visible
Pressure 30.08 in
Visibility 10.0 miles
Clouds Clear
Dew Point 52 °F
Humidity 94%
Rainfall 0.00 in
Snow Depth Not available.
UV 0 out of 12
Pollen 6.40 out of 12
Air Quality Not available.
Flu Activity Not available.
METAR KEVV 190554Z AUTO 03004KT 10SM CLR 14/11 A3008 RMK AO2 SLP186 T01440106 10200 20139 402390139 50001

More Conditions Fewer Conditions

Pressure 30.08 in
Visibility 10.0 miles
Clouds Clear
Dew Point 52 °F
Humidity 94%
Rainfall 0.00 in
Snow Depth Not available.
UV 0 out of 12
Pollen 6.40 out of 12
Air Quality Not available.
Flu Activity Not available.
METAR KEVV 190554Z AUTO 03004KT 10SM CLR 14/11 A3008 RMK AO2 SLP186 T01440106 10200 20139 402390139 50001

More Conditions Fewer Conditions

10-Day Weather Forecast

Almanac

Astronomy

Sep. 19, 2014 Rise Set
Actual Time 6:34 AM CDT 6:51 PM CDT
Civil Twilight 6:08 AM CDT 7:17 PM CDT
Nautical Twilight 5:37 AM CDT 7:48 PM CDT
Astronomical Twilight 5:06 AM CDT 8:19 PM CDT
Moon 2:22 AM CDT 4:16 PM CDT
Length of Visible Light 13h 09m
Length of Day
12h 16m
Tomorrow will be 2m 26s shorter.
Waning Crescent, 21% of the Moon is Illuminated
Today
Waning Crescent
Sep 24
New
Oct 1
First Quarter
Oct 8
Full
Oct 15
Last Quarter

Today's Extremes

State Highs State Lows

Community

WunderPhotos

Upload Photos

1,754,575 photos uploaded!

Nearby

Snow Depth

Station Depth Elevation
No new snow has been reported.

Earthquake Activity

City Distance Mag. Time & Date
No recent earthquake activity has been reported nearby.
Minimum magnitude displayed is 2.5.

Coastal Water Temperatures

Place Temperature
No Stations Reporting

Nearby Weather Stations